Terminal Aerodrome Forecast
Issued by NWS Lake Charles, LA

Home | Current Version | Previous Version | Text Only | Print | Product List | Glossary On
Versions: 1 2 3 4 5 6 7 8 9 10 11 12 13 14 15 16
000
FTUS44 KLCH 210700 AAA
TAFAEX
TAF AMD
KAEX 210710Z 2107/2206 00000KT 3SM MIFG SKC
      TEMPO 2107/2111 1SM BR SKC
     FM211100 00000KT 1SM BR SKC
     FM211500 VRB03KT 6SM BR SKC
     FM211600 VRB06KT P6SM FEW060=

USA.gov is the U.S. government's official web portal to all federal, state and local government web resources and services.